sensor_id;sensor_type;location;lat;lon;timestamp;pressure;altitude;pressure_sealevel;temperature;humidity
56270;BME280;42176;43.240;27.880;2023-03-13T00:00:59;100543.03;;;4.13;76.00
56270;BME280;42176;43.240;27.880;2023-03-13T00:03:26;100548.28;;;4.13;76.19
56270;BME280;42176;43.240;27.880;2023-03-13T00:05:56;100528.88;;;3.98;76.60
56270;BME280;42176;43.240;27.880;2023-03-13T00:08:24;100557.81;;;4.07;76.76
56270;BME280;42176;43.240;27.880;2023-03-13T00:10:50;100555.19;;;4.04;77.47
56270;BME280;42176;43.240;27.880;2023-03-13T00:13:17;100555.16;;;4.01;77.67
56270;BME280;42176;43.240;27.880;2023-03-13T00:15:42;100553.34;;;3.97;77.78
56270;BME280;42176;43.240;27.880;2023-03-13T00:18:07;100560.25;;;3.89;78.27
56270;BME280;42176;43.240;27.880;2023-03-13T00:20:33;100552.34;;;3.87;78.45
56270;BME280;42176;43.240;27.880;2023-03-13T00:22:58;100548.81;;;3.85;78.60
56270;BME280;42176;43.240;27.880;2023-03-13T00:25:24;100562.91;;;3.92;78.63
56270;BME280;42176;43.240;27.880;2023-03-13T00:27:49;100555.06;;;3.95;78.88
56270;BME280;42176;43.240;27.880;2023-03-13T00:32:41;100558.56;;;3.94;78.79
56270;BME280;42176;43.240;27.880;2023-03-13T00:35:07;100546.25;;;3.87;79.31
56270;BME280;42176;43.240;27.880;2023-03-13T00:37:32;100552.41;;;3.90;79.66
56270;BME280;42176;43.240;27.880;2023-03-13T00:39:58;100558.56;;;3.94;79.80
56270;BME280;42176;43.240;27.880;2023-03-13T00:42:23;100556.75;;;3.90;79.84
56270;BME280;42176;43.240;27.880;2023-03-13T00:44:48;100555.88;;;3.88;79.65
56270;BME280;42176;43.240;27.880;2023-03-13T00:47:14;100561.97;;;3.87;79.98
56270;BME280;42176;43.240;27.880;2023-03-13T00:49:39;100561.09;;;3.86;79.83
56270;BME280;42176;43.240;27.880;2023-03-13T00:52:05;100560.13;;;3.79;80.11
56270;BME280;42176;43.240;27.880;2023-03-13T00:54:30;100570.63;;;3.79;80.18
56270;BME280;42176;43.240;27.880;2023-03-13T00:56:56;100569.72;;;3.77;80.29
56270;BME280;42176;43.240;27.880;2023-03-13T00:59:21;100561.84;;;3.76;80.75
56270;BME280;42176;43.240;27.880;2023-03-13T01:01:47;100558.38;;;3.78;80.81
56270;BME280;42176;43.240;27.880;2023-03-13T01:04:13;100565.31;;;3.76;80.64
56270;BME280;42176;43.240;27.880;2023-03-13T01:06:40;100562.69;;;3.75;81.01
56270;BME280;42176;43.240;27.880;2023-03-13T01:09:08;100567.03;;;3.74;80.71
56270;BME280;42176;43.240;27.880;2023-03-13T01:11:35;100567.09;;;3.77;80.78
56270;BME280;42176;43.240;27.880;2023-03-13T01:14:04;100568.84;;;3.78;80.47
56270;BME280;42176;43.240;27.880;2023-03-13T01:16:31;100570.63;;;3.79;80.33
56270;BME280;42176;43.240;27.880;2023-03-13T01:19:02;100568.91;;;3.81;80.74
56270;BME280;42176;43.240;27.880;2023-03-13T01:21:29;100568.91;;;3.81;80.27
56270;BME280;42176;43.240;27.880;2023-03-13T01:23:55;100575.84;;;3.79;79.90
56270;BME280;42176;43.240;27.880;2023-03-13T01:26:22;100571.47;;;3.78;80.18
56270;BME280;42176;43.240;27.880;2023-03-13T01:28:48;100581.06;;;3.76;80.54
56270;BME280;42176;43.240;27.880;2023-03-13T01:31:17;100581.03;;;3.73;80.04
56270;BME280;42176;43.240;27.880;2023-03-13T01:33:44;100560.75;;;3.60;79.82
56270;BME280;42176;43.240;27.880;2023-03-13T01:36:10;100579.19;;;3.68;79.79
56270;BME280;42176;43.240;27.880;2023-03-13T01:38:37;100579.19;;;3.66;80.19
56270;BME280;42176;43.240;27.880;2023-03-13T01:41:03;100577.44;;;3.65;79.74
56270;BME280;42176;43.240;27.880;2023-03-13T01:43:31;100576.56;;;3.66;79.66
56270;BME280;42176;43.240;27.880;2023-03-13T01:46:08;100579.09;;;3.60;79.19
56270;BME280;42176;43.240;27.880;2023-03-13T01:48:41;100581.59;;;3.50;79.33
56270;BME280;42176;43.240;27.880;2023-03-13T01:51:12;100597.38;;;3.54;79.40
56270;BME280;42176;43.240;27.880;2023-03-13T01:53:41;100587.47;;;3.34;79.70
56270;BME280;42176;43.240;27.880;2023-03-13T01:56:13;100605.00;;;3.38;79.89
56270;BME280;42176;43.240;27.880;2023-03-13T01:58:39;100606.69;;;3.33;80.20
56270;BME280;42176;43.240;27.880;2023-03-13T02:01:05;100620.63;;;3.32;80.67
56270;BME280;42176;43.240;27.880;2023-03-13T02:03:32;100618.88;;;3.31;80.99
56270;BME280;42176;43.240;27.880;2023-03-13T02:05:59;100617.88;;;3.23;81.13
56270;BME280;42176;43.240;27.880;2023-03-13T02:08:58;100633.69;;;3.29;81.84
56270;BME280;42176;43.240;27.880;2023-03-13T02:11:37;100636.28;;;3.26;81.23
56270;BME280;42176;43.240;27.880;2023-03-13T02:14:04;100620.34;;;3.13;81.63
56270;BME280;42176;43.240;27.880;2023-03-13T02:16:32;100634.50;;;3.25;81.00
56270;BME280;42176;43.240;27.880;2023-03-13T02:19:00;100639.75;;;3.26;81.42
56270;BME280;42176;43.240;27.880;2023-03-13T02:24:08;100654.63;;;3.27;80.65
56270;BME280;42176;43.240;27.880;2023-03-13T02:26:38;100652.00;;;3.26;80.65
56270;BME280;42176;43.240;27.880;2023-03-13T02:29:03;100660.66;;;3.22;80.54
56270;BME280;42176;43.240;27.880;2023-03-13T02:31:29;100660.63;;;3.20;80.59
56270;BME280;42176;43.240;27.880;2023-03-13T02:33:57;100660.53;;;3.15;81.27
56270;BME280;42176;43.240;27.880;2023-03-13T02:36:24;100667.56;;;3.16;80.82
56270;BME280;42176;43.240;27.880;2023-03-13T02:38:54;100667.50;;;3.13;81.04
56270;BME280;42176;43.240;27.880;2023-03-13T02:41:22;100656.81;;;3.01;81.04
56270;BME280;42176;43.240;27.880;2023-03-13T02:43:48;100673.56;;;3.09;81.19
56270;BME280;42176;43.240;27.880;2023-03-13T02:46:17;100678.69;;;3.04;81.27
56270;BME280;42176;43.240;27.880;2023-03-13T02:48:48;100669.03;;;3.00;81.58
56270;BME280;42176;43.240;27.880;2023-03-13T02:53:51;100654.78;;;2.84;81.55
56270;BME280;42176;43.240;27.880;2023-03-13T02:56:21;100679.44;;;2.96;81.15
56270;BME280;42176;43.240;27.880;2023-03-13T02:58:49;100688.19;;;2.98;80.29
56270;BME280;42176;43.240;27.880;2023-03-13T03:01:14;100686.41;;;2.97;80.00
56270;BME280;42176;43.240;27.880;2023-03-13T03:03:40;100687.38;;;3.00;79.09
56270;BME280;42176;43.240;27.880;2023-03-13T03:06:05;100686.47;;;3.00;78.94
56270;BME280;42176;43.240;27.880;2023-03-13T03:08:32;100689.91;;;2.96;77.92
56270;BME280;42176;43.240;27.880;2023-03-13T03:10:57;100696.81;;;2.91;77.58
56270;BME280;42176;43.240;27.880;2023-03-13T03:13:23;100705.44;;;2.86;77.65
56270;BME280;42176;43.240;27.880;2023-03-13T03:15:48;100715.84;;;2.83;77.73
56270;BME280;42176;43.240;27.880;2023-03-13T03:18:14;100706.94;;;2.73;77.50
56270;BME280;42176;43.240;27.880;2023-03-13T03:20:39;100698.97;;;2.67;77.81
56270;BME280;42176;43.240;27.880;2023-03-13T03:23:05;100712.03;;;2.66;78.81
56270;BME280;42176;43.240;27.880;2023-03-13T03:25:30;100717.22;;;2.63;79.28
56270;BME280;42176;43.240;27.880;2023-03-13T03:27:56;100712.00;;;2.63;79.83
56270;BME280;42176;43.240;27.880;2023-03-13T03:30:21;100702.22;;;2.54;79.92
56270;BME280;42176;43.240;27.880;2023-03-13T03:32:46;100719.88;;;2.66;79.73
56270;BME280;42176;43.240;27.880;2023-03-13T03:35:12;100713.78;;;2.65;79.23
56270;BME280;42176;43.240;27.880;2023-03-13T03:37:37;100708.44;;;2.61;78.56
56270;BME280;42176;43.240;27.880;2023-03-13T03:40:03;100711.84;;;2.56;78.48
56270;BME280;42176;43.240;27.880;2023-03-13T03:42:32;100721.41;;;2.54;78.00
56270;BME280;42176;43.240;27.880;2023-03-13T03:44:58;100712.47;;;2.44;78.08
56270;BME280;42176;43.240;27.880;2023-03-13T03:47:23;100678.97;;;2.26;77.98
56270;BME280;42176;43.240;27.880;2023-03-13T03:49:49;100720.50;;;2.52;78.16
56270;BME280;42176;43.240;27.880;2023-03-13T03:52:14;100727.41;;;2.50;77.65
56270;BME280;42176;43.240;27.880;2023-03-13T03:54:40;100614.47;;;1.84;77.53
56270;BME280;42176;43.240;27.880;2023-03-13T03:57:05;100722.16;;;2.47;77.38
56270;BME280;42176;43.240;27.880;2023-03-13T03:59:31;100732.63;;;2.47;77.44
56270;BME280;42176;43.240;27.880;2023-03-13T04:01:56;100723.91;;;2.48;77.10
56270;BME280;42176;43.240;27.880;2023-03-13T04:04:22;100730.88;;;2.49;76.94
56270;BME280;42176;43.240;27.880;2023-03-13T04:06:47;100741.34;;;2.49;76.88
56270;BME280;42176;43.240;27.880;2023-03-13T04:09:13;100733.56;;;2.51;76.37
56270;BME280;42176;43.240;27.880;2023-03-13T04:11:38;100741.34;;;2.49;76.79
56270;BME280;42176;43.240;27.880;2023-03-13T04:14:04;100739.63;;;2.48;76.79
56270;BME280;42176;43.240;27.880;2023-03-13T04:16:29;100746.66;;;2.52;76.38
56270;BME280;42176;43.240;27.880;2023-03-13T04:18:55;100744.88;;;2.51;76.29
56270;BME280;42176;43.240;27.880;2023-03-13T04:21:20;100756.16;;;2.47;76.45
56270;BME280;42176;43.240;27.880;2023-03-13T04:23:46;100761.41;;;2.47;76.11
56270;BME280;42176;43.240;27.880;2023-03-13T04:26:11;100757.09;;;2.51;76.22
56270;BME280;42176;43.240;27.880;2023-03-13T04:28:37;100765.81;;;2.51;75.64
56270;BME280;42176;43.240;27.880;2023-03-13T04:31:02;100769.38;;;2.53;75.91
56270;BME280;42176;43.240;27.880;2023-03-13T04:33:28;100772.91;;;2.55;75.52
56270;BME280;42176;43.240;27.880;2023-03-13T04:35:53;100778.28;;;2.62;75.56
56270;BME280;42176;43.240;27.880;2023-03-13T04:38:19;100774.81;;;2.63;75.14
56270;BME280;42176;43.240;27.880;2023-03-13T04:40:45;100777.47;;;2.66;75.01
56270;BME280;42176;43.240;27.880;2023-03-13T04:43:12;100781.84;;;2.67;75.00
56270;BME280;42176;43.240;27.880;2023-03-13T04:45:37;100787.16;;;2.70;74.80
56270;BME280;42176;43.240;27.880;2023-03-13T04:48:03;100784.63;;;2.73;74.46
56270;BME280;42176;43.240;27.880;2023-03-13T04:50:28;100782.91;;;2.75;74.30
56270;BME280;42176;43.240;27.880;2023-03-13T04:52:53;100792.47;;;3.17;73.69
56270;BME280;42176;43.240;27.880;2023-03-13T04:55:19;100795.41;;;4.47;68.20
56270;BME280;42176;43.240;27.880;2023-03-13T04:57:44;100794.44;;;5.14;65.83
56270;BME280;42176;43.240;27.880;2023-03-13T05:02:42;100803.25;;;6.13;60.98
56270;BME280;42176;43.240;27.880;2023-03-13T05:05:07;100804.53;;;6.80;57.62
56270;BME280;42176;43.240;27.880;2023-03-13T05:07:33;100810.00;;;7.86;54.62
56270;BME280;42176;43.240;27.880;2023-03-13T05:09:58;100811.63;;;8.80;51.07
56270;BME280;42176;43.240;27.880;2023-03-13T05:12:24;100804.16;;;9.59;49.56
56270;BME280;42176;43.240;27.880;2023-03-13T05:14:49;100813.09;;;10.47;47.20
56270;BME280;42176;43.240;27.880;2023-03-13T05:17:15;100809.53;;;11.22;44.72
56270;BME280;42176;43.240;27.880;2023-03-13T05:19:41;100812.09;;;11.87;42.91
56270;BME280;42176;43.240;27.880;2023-03-13T05:22:07;100802.59;;;12.27;41.38
56270;BME280;42176;43.240;27.880;2023-03-13T05:24:32;100816.06;;;12.63;40.39
56270;BME280;42176;43.240;27.880;2023-03-13T05:26:58;100816.47;;;13.31;39.09
56270;BME280;42176;43.240;27.880;2023-03-13T05:29:23;100817.78;;;13.90;37.99
56270;BME280;42176;43.240;27.880;2023-03-13T05:31:49;100815.25;;;14.52;36.77
56270;BME280;42176;43.240;27.880;2023-03-13T05:34:14;100813.16;;;14.96;35.52
56270;BME280;42176;43.240;27.880;2023-03-13T05:36:40;100817.44;;;15.60;34.50
56270;BME280;42176;43.240;27.880;2023-03-13T05:39:05;100821.75;;;16.20;33.55
56270;BME280;42176;43.240;27.880;2023-03-13T05:41:30;100822.41;;;16.77;32.79
56270;BME280;42176;43.240;27.880;2023-03-13T05:43:56;100822.16;;;17.32;31.68
56270;BME280;42176;43.240;27.880;2023-03-13T05:46:21;100832.06;;;17.53;32.17
56270;BME280;42176;43.240;27.880;2023-03-13T05:48:47;100835.91;;;17.45;31.94
56270;BME280;42176;43.240;27.880;2023-03-13T05:51:12;100840.94;;;17.55;32.93
56270;BME280;42176;43.240;27.880;2023-03-13T05:53:38;100840.28;;;17.48;32.31
56270;BME280;42176;43.240;27.880;2023-03-13T05:56:03;100834.81;;;17.51;32.92
56270;BME280;42176;43.240;27.880;2023-03-13T05:58:29;100824.56;;;17.61;32.37
56270;BME280;42176;43.240;27.880;2023-03-13T06:00:54;100847.53;;;18.54;31.55
56270;BME280;42176;43.240;27.880;2023-03-13T06:03:20;100831.81;;;18.86;30.57
56270;BME280;42176;43.240;27.880;2023-03-13T06:05:45;100843.94;;;19.15;30.36
56270;BME280;42176;43.240;27.880;2023-03-13T06:08:11;100851.19;;;19.71;29.73
56270;BME280;42176;43.240;27.880;2023-03-13T06:10:36;100854.06;;;20.22;28.99
56270;BME280;42176;43.240;27.880;2023-03-13T06:13:01;100850.66;;;20.18;28.93
56270;BME280;42176;43.240;27.880;2023-03-13T06:15:27;100859.84;;;20.49;28.68
56270;BME280;42176;43.240;27.880;2023-03-13T06:17:52;100868.84;;;21.01;28.23
56270;BME280;42176;43.240;27.880;2023-03-13T06:20:18;100862.81;;;21.45;27.39
56270;BME280;42176;43.240;27.880;2023-03-13T06:22:43;100861.69;;;21.82;26.90
56270;BME280;42176;43.240;27.880;2023-03-13T06:25:09;100859.19;;;22.25;26.32
56270;BME280;42176;43.240;27.880;2023-03-13T06:27:34;100856.97;;;22.77;25.75
56270;BME280;42176;43.240;27.880;2023-03-13T06:30:00;100853.28;;;23.65;24.76
56270;BME280;42176;43.240;27.880;2023-03-13T06:32:27;100868.44;;;24.09;24.48
56270;BME280;42176;43.240;27.880;2023-03-13T06:34:52;100867.50;;;24.36;24.08
56270;BME280;42176;43.240;27.880;2023-03-13T06:37:18;100862.84;;;20.78;22.30
56270;BME280;42176;43.240;27.880;2023-03-13T06:39:43;100867.59;;;22.04;25.02
56270;BME280;42176;43.240;27.880;2023-03-13T06:42:09;100863.69;;;22.25;23.05
56270;BME280;42176;43.240;27.880;2023-03-13T06:44:34;100865.78;;;23.09;23.02
56270;BME280;42176;43.240;27.880;2023-03-13T06:47:00;100850.06;;;22.73;20.70
56270;BME280;42176;43.240;27.880;2023-03-13T06:49:25;100850.63;;;22.78;20.54
56270;BME280;42176;43.240;27.880;2023-03-13T06:51:51;100849.63;;;23.51;19.97
56270;BME280;42176;43.240;27.880;2023-03-13T06:54:16;100848.97;;;23.19;19.03
56270;BME280;42176;43.240;27.880;2023-03-13T06:56:42;100872.97;;;23.81;18.94
56270;BME280;42176;43.240;27.880;2023-03-13T06:59:07;100862.38;;;23.64;19.16
56270;BME280;42176;43.240;27.880;2023-03-13T07:01:33;100867.59;;;24.22;18.22
56270;BME280;42176;43.240;27.880;2023-03-13T07:03:58;100864.88;;;24.22;17.92
56270;BME280;42176;43.240;27.880;2023-03-13T07:06:24;100861.19;;;23.68;16.48
56270;BME280;42176;43.240;27.880;2023-03-13T07:08:49;100859.88;;;22.74;18.60
56270;BME280;42176;43.240;27.880;2023-03-13T07:11:15;100857.56;;;23.11;18.58
56270;BME280;42176;43.240;27.880;2023-03-13T07:13:40;100852.34;;;23.37;18.38
56270;BME280;42176;43.240;27.880;2023-03-13T07:16:08;100867.94;;;23.75;17.34
56270;BME280;42176;43.240;27.880;2023-03-13T07:18:35;100851.56;;;22.77;17.02
56270;BME280;42176;43.240;27.880;2023-03-13T07:21:02;100875.84;;;22.01;17.26
56270;BME280;42176;43.240;27.880;2023-03-13T07:23:32;100863.53;;;22.12;17.97
56270;BME280;42176;43.240;27.880;2023-03-13T07:26:00;100876.03;;;22.45;17.29
56270;BME280;42176;43.240;27.880;2023-03-13T07:28:26;100883.75;;;20.56;19.57
56270;BME280;42176;43.240;27.880;2023-03-13T07:30:53;100870.78;;;18.96;27.37
56270;BME280;42176;43.240;27.880;2023-03-13T07:33:18;100866.19;;;20.48;25.72
56270;BME280;42176;43.240;27.880;2023-03-13T07:35:48;100866.41;;;20.61;25.20
56270;BME280;42176;43.240;27.880;2023-03-13T07:38:14;100866.69;;;21.24;24.12
56270;BME280;42176;43.240;27.880;2023-03-13T07:40:46;100872.00;;;22.36;24.00
56270;BME280;42176;43.240;27.880;2023-03-13T07:43:12;100872.84;;;22.98;22.69
56270;BME280;42176;43.240;27.880;2023-03-13T07:45:37;100877.44;;;22.66;22.69
56270;BME280;42176;43.240;27.880;2023-03-13T07:48:03;100874.44;;;22.57;22.79
56270;BME280;42176;43.240;27.880;2023-03-13T07:50:28;100867.97;;;22.59;22.59
56270;BME280;42176;43.240;27.880;2023-03-13T07:52:54;100860.66;;;22.90;22.14
56270;BME280;42176;43.240;27.880;2023-03-13T07:55:19;100865.56;;;23.83;21.10
56270;BME280;42176;43.240;27.880;2023-03-13T07:57:44;100875.34;;;22.86;21.79
56270;BME280;42176;43.240;27.880;2023-03-13T08:00:10;100867.13;;;22.88;20.97
56270;BME280;42176;43.240;27.880;2023-03-13T08:02:40;100871.16;;;22.35;21.03
56270;BME280;42176;43.240;27.880;2023-03-13T08:05:06;100855.84;;;23.39;20.51
56270;BME280;42176;43.240;27.880;2023-03-13T08:07:31;100872.84;;;22.98;20.72
56270;BME280;42176;43.240;27.880;2023-03-13T08:09:57;100873.41;;;24.15;19.63
56270;BME280;42176;43.240;27.880;2023-03-13T08:12:22;100866.03;;;25.09;18.77
56270;BME280;42176;43.240;27.880;2023-03-13T08:14:48;100870.97;;;25.67;18.70
56270;BME280;42176;43.240;27.880;2023-03-13T08:17:13;100878.41;;;22.65;16.38
56270;BME280;42176;43.240;27.880;2023-03-13T08:19:39;100877.09;;;20.28;17.45
56270;BME280;42176;43.240;27.880;2023-03-13T08:22:04;100869.84;;;21.96;17.24
56270;BME280;42176;43.240;27.880;2023-03-13T08:24:30;100874.94;;;19.04;18.22
56270;BME280;42176;43.240;27.880;2023-03-13T08:26:55;100858.38;;;18.73;18.93
56270;BME280;42176;43.240;27.880;2023-03-13T08:29:21;100858.28;;;19.91;18.18
56270;BME280;42176;43.240;27.880;2023-03-13T08:31:48;100861.72;;;20.12;17.81
56270;BME280;42176;43.240;27.880;2023-03-13T08:34:15;100853.81;;;19.53;18.30
56270;BME280;42176;43.240;27.880;2023-03-13T08:36:41;100859.25;;;18.94;19.04
56270;BME280;42176;43.240;27.880;2023-03-13T08:39:11;100853.38;;;19.43;17.96
56270;BME280;42176;43.240;27.880;2023-03-13T08:41:37;100845.47;;;17.29;19.64
56270;BME280;42176;43.240;27.880;2023-03-13T08:44:05;100868.28;;;16.92;19.74
56270;BME280;42176;43.240;27.880;2023-03-13T08:46:33;100867.69;;;16.06;20.65
56270;BME280;42176;43.240;27.880;2023-03-13T08:48:59;100848.75;;;17.37;20.44
56270;BME280;42176;43.240;27.880;2023-03-13T08:51:26;100871.53;;;18.59;18.95
56270;BME280;42176;43.240;27.880;2023-03-13T08:53:52;100870.72;;;15.95;21.75
56270;BME280;42176;43.240;27.880;2023-03-13T08:56:22;100875.66;;;16.07;22.35
56270;BME280;42176;43.240;27.880;2023-03-13T08:58:55;100878.38;;;15.19;22.37
56270;BME280;42176;43.240;27.880;2023-03-13T09:01:23;100876.56;;;14.88;23.08
56270;BME280;42176;43.240;27.880;2023-03-13T09:03:49;100874.91;;;13.78;24.66
56270;BME280;42176;43.240;27.880;2023-03-13T09:06:14;100895.72;;;13.18;25.22
56270;BME280;42176;43.240;27.880;2023-03-13T09:08:41;100879.41;;;12.43;25.84
56270;BME280;42176;43.240;27.880;2023-03-13T09:11:12;100865.69;;;12.64;25.95
56270;BME280;42176;43.240;27.880;2023-03-13T09:13:41;100873.13;;;12.47;25.89
56270;BME280;42176;43.240;27.880;2023-03-13T09:16:17;100875.97;;;11.80;27.04
56270;BME280;42176;43.240;27.880;2023-03-13T09:18:44;100869.88;;;11.07;28.58
56270;BME280;42176;43.240;27.880;2023-03-13T09:21:16;100871.91;;;10.87;29.70
56270;BME280;42176;43.240;27.880;2023-03-13T09:23:42;100877.91;;;10.09;30.05
56270;BME280;42176;43.240;27.880;2023-03-13T09:26:08;100859.50;;;9.89;31.13
56270;BME280;42176;43.240;27.880;2023-03-13T09:28:34;100848.34;;;9.45;33.04
56270;BME280;42176;43.240;27.880;2023-03-13T09:31:14;100864.13;;;9.64;33.93
56270;BME280;42176;43.240;27.880;2023-03-13T09:33:41;100859.16;;;8.95;34.57
56270;BME280;42176;43.240;27.880;2023-03-13T09:36:08;100852.16;;;8.82;34.83
56270;BME280;42176;43.240;27.880;2023-03-13T09:38:34;100869.78;;;8.86;35.45
56270;BME280;42176;43.240;27.880;2023-03-13T09:49:09;100893.56;;;8.94;37.42
56270;BME280;42176;43.240;27.880;2023-03-13T09:51:38;100891.00;;;8.52;38.08
56270;BME280;42176;43.240;27.880;2023-03-13T09:54:35;100889.19;;;8.42;39.25
56270;BME280;42176;43.240;27.880;2023-03-13T09:57:30;100880.41;;;8.46;39.98
56270;BME280;42176;43.240;27.880;2023-03-13T10:00:02;100880.44;;;8.49;42.05
56270;BME280;42176;43.240;27.880;2023-03-13T10:02:33;100875.13;;;8.64;41.92
56270;BME280;42176;43.240;27.880;2023-03-13T10:05:27;100903.31;;;8.62;41.60
56270;BME280;42176;43.240;27.880;2023-03-13T10:07:55;100881.28;;;8.70;43.60
56270;BME280;42176;43.240;27.880;2023-03-13T10:10:40;100877.78;;;8.60;45.30
56270;BME280;42176;43.240;27.880;2023-03-13T10:13:17;100876.88;;;8.59;44.93
56270;BME280;42176;43.240;27.880;2023-03-13T10:15:54;100874.25;;;8.55;45.66
56270;BME280;42176;43.240;27.880;2023-03-13T10:18:22;100877.78;;;8.40;46.48
56270;BME280;42176;43.240;27.880;2023-03-13T10:20:55;100869.81;;;8.46;46.75
56270;BME280;42176;43.240;27.880;2023-03-13T10:26:15;100871.63;;;8.50;46.93
56270;BME280;42176;43.240;27.880;2023-03-13T10:28:43;100862.81;;;8.04;45.94
56270;BME280;42176;43.240;27.880;2023-03-13T10:31:32;100864.59;;;8.24;45.61
56270;BME280;42176;43.240;27.880;2023-03-13T10:34:10;100868.09;;;8.01;46.29
56270;BME280;42176;43.240;27.880;2023-03-13T10:36:42;100866.31;;;7.97;47.33
56270;BME280;42176;43.240;27.880;2023-03-13T10:39:15;100864.56;;;8.15;47.97
56270;BME280;42176;43.240;27.880;2023-03-13T10:41:40;100875.16;;;8.16;46.58
56270;BME280;42176;43.240;27.880;2023-03-13T10:44:15;100833.78;;;7.89;46.17
56270;BME280;42176;43.240;27.880;2023-03-13T10:46:42;100846.09;;;7.88;46.27
56270;BME280;42176;43.240;27.880;2023-03-13T10:49:18;100844.31;;;7.90;46.06
56270;BME280;42176;43.240;27.880;2023-03-13T10:51:52;100849.63;;;8.01;47.41
56270;BME280;42176;43.240;27.880;2023-03-13T10:54:48;100855.78;;;8.06;47.73
56270;BME280;42176;43.240;27.880;2023-03-13T10:57:36;100855.75;;;8.13;46.24
56270;BME280;42176;43.240;27.880;2023-03-13T11:00:36;100858.41;;;7.86;47.99
56270;BME280;42176;43.240;27.880;2023-03-13T11:03:19;100849.59;;;7.98;47.32
56270;BME280;42176;43.240;27.880;2023-03-13T11:06:00;100839.06;;;7.84;47.92
56270;BME280;42176;43.240;27.880;2023-03-13T11:08:33;100826.75;;;7.96;48.84
56270;BME280;42176;43.240;27.880;2023-03-13T11:11:01;100840.81;;;7.98;49.00
56270;BME280;42176;43.240;27.880;2023-03-13T11:13:35;100833.75;;;8.17;47.83
56270;BME280;42176;43.240;27.880;2023-03-13T11:16:28;100838.19;;;8.02;48.37
56270;BME280;42176;43.240;27.880;2023-03-13T11:30:14;100805.63;;;8.06;49.19
56270;BME280;42176;43.240;27.880;2023-03-13T11:32:47;100804.72;;;8.14;49.21
56270;BME280;42176;43.240;27.880;2023-03-13T11:35:22;100798.59;;;7.93;49.30
56270;BME280;42176;43.240;27.880;2023-03-13T11:37:54;100794.16;;;8.14;49.07
56270;BME280;42176;43.240;27.880;2023-03-13T11:40:28;100786.22;;;8.21;47.94
56270;BME280;42176;43.240;27.880;2023-03-13T11:51:54;100784.47;;;8.00;49.75
56270;BME280;42176;43.240;27.880;2023-03-13T11:57:27;100792.41;;;7.97;49.77
56270;BME280;42176;43.240;27.880;2023-03-13T12:05:18;100777.44;;;7.81;50.51
56270;BME280;42176;43.240;27.880;2023-03-13T12:10:36;100780.97;;;7.72;51.56
56270;BME280;42176;43.240;27.880;2023-03-13T12:13:07;100785.38;;;7.93;50.90
56270;BME280;42176;43.240;27.880;2023-03-13T12:15:49;100776.59;;;7.88;50.58
56270;BME280;42176;43.240;27.880;2023-03-13T12:18:33;100771.28;;;7.63;51.46
56270;BME280;42176;43.240;27.880;2023-03-13T12:21:12;100762.50;;;7.56;51.31
56270;BME280;42176;43.240;27.880;2023-03-13T12:29:47;100771.28;;;8.00;51.01
56270;BME280;42176;43.240;27.880;2023-03-13T12:35:25;100771.28;;;7.97;51.64
56270;BME280;42176;43.240;27.880;2023-03-13T12:38:16;100770.38;;;8.03;51.24
56270;BME280;42176;43.240;27.880;2023-03-13T12:43:39;100760.75;;;7.94;51.88
56270;BME280;42176;43.240;27.880;2023-03-13T12:46:29;100777.47;;;7.76;51.47
56270;BME280;42176;43.240;27.880;2023-03-13T12:51:44;100764.25;;;7.95;51.58
56270;BME280;42176;43.240;27.880;2023-03-13T12:59:18;100759.88;;;7.81;52.06
56270;BME280;42176;43.240;27.880;2023-03-13T13:01:47;100767.78;;;7.80;53.16
56270;BME280;42176;43.240;27.880;2023-03-13T13:06:56;100774.81;;;7.93;53.19
56270;BME280;42176;43.240;27.880;2023-03-13T13:09:34;100751.94;;;7.89;52.51
56270;BME280;42176;43.240;27.880;2023-03-13T13:12:20;100773.03;;;7.95;54.97
56270;BME280;42176;43.240;27.880;2023-03-13T13:19:48;100773.06;;;7.83;52.53
56270;BME280;42176;43.240;27.880;2023-03-13T13:25:24;100771.31;;;7.72;53.57
56270;BME280;42176;43.240;27.880;2023-03-13T13:27:47;100761.63;;;7.81;54.27
56270;BME280;42176;43.240;27.880;2023-03-13T13:37:38;100764.28;;;7.59;56.24
56270;BME280;42176;43.240;27.880;2023-03-13T13:43:30;100754.59;;;7.62;56.78
56270;BME280;42176;43.240;27.880;2023-03-13T13:46:02;100759.88;;;7.53;57.66
56270;BME280;42176;43.240;27.880;2023-03-13T13:48:37;100754.59;;;7.78;58.38
56270;BME280;42176;43.240;27.880;2023-03-13T13:51:24;100763.38;;;7.43;57.38
56270;BME280;42176;43.240;27.880;2023-03-13T13:56:35;100764.25;;;7.53;56.82
56270;BME280;42176;43.240;27.880;2023-03-13T13:59:20;100759.00;;;7.56;56.60
56270;BME280;42176;43.240;27.880;2023-03-13T14:02:04;100758.97;;;7.34;56.67
56270;BME280;42176;43.240;27.880;2023-03-13T14:07:23;100764.25;;;7.56;54.20
56270;BME280;42176;43.240;27.880;2023-03-13T14:10:14;100766.84;;;7.26;52.96
56270;BME280;42176;43.240;27.880;2023-03-13T14:12:46;100764.25;;;7.28;51.87
56270;BME280;42176;43.240;27.880;2023-03-13T14:15:16;100754.56;;;7.25;52.25
56270;BME280;42176;43.240;27.880;2023-03-13T14:20:37;100757.22;;;7.36;51.00
56270;BME280;42176;43.240;27.880;2023-03-13T14:23:09;100753.72;;;7.31;52.07
56270;BME280;42176;43.240;27.880;2023-03-13T14:25:55;100759.00;;;7.59;52.18
56270;BME280;42176;43.240;27.880;2023-03-13T14:30:50;100762.53;;;7.76;49.15
56270;BME280;42176;43.240;27.880;2023-03-13T14:33:16;100764.28;;;7.59;47.88
56270;BME280;42176;43.240;27.880;2023-03-13T14:35:42;100760.75;;;7.44;47.60
56270;BME280;42176;43.240;27.880;2023-03-13T14:38:22;100744.03;;;7.49;47.95
56270;BME280;42176;43.240;27.880;2023-03-13T14:40:49;100748.44;;;7.59;48.31